Alts de San Benito, Puerto Rico
Current Conditions -  °F | °C
As of 10:53 AM on Saturday 20 Dec 2014 (Local Time) from TJNR Reporting Station
Scattered Clouds Scattered Clouds  
Wind Chill: 29°   Ceiling: Unl
Heat Index: 31°   Visibility: 10mi
Dew Point: 21°   Wind: 12mph
Humidity: 63%   Direction: 80°E
Pressure: 30.08"   Gusts: NA
Location:  18.1494°N, 65.8294°W
Report Text: TJNR 201453Z AUTO 08010KT 10SM FEW030 SCT038 29/21 A3008 RMK AO2 SLP187 T02890211 50014 $
Loading
Personal Weather Stations






























Interactive Weather Map New forecast layout! Learn more

10-Day Weather Forecast

Advertisements
Track Severe Weather on mobile